createdAt,value
2022-12-11T00:00:24.919Z,3.47
2022-12-11T00:01:26.418Z,3.46
2022-12-11T00:02:28.548Z,3.49
2022-12-11T00:03:30.165Z,3.48
2022-12-11T00:04:31.818Z,3.49
2022-12-11T00:05:33.322Z,3.50
2022-12-11T00:06:34.802Z,3.52
2022-12-11T00:07:36.341Z,3.54
2022-12-11T00:08:37.954Z,3.55
2022-12-11T00:09:39.470Z,3.59
2022-12-11T00:10:47.101Z,3.60
2022-12-11T00:11:48.679Z,3.61
2022-12-11T00:12:50.215Z,3.62
2022-12-11T00:13:51.735Z,3.63
2022-12-11T00:14:53.287Z,3.65
2022-12-11T00:15:54.794Z,3.66
2022-12-11T00:16:56.339Z,3.68
2022-12-11T00:17:57.882Z,3.69
2022-12-11T00:18:59.421Z,3.72
2022-12-11T00:20:00.923Z,3.73
2022-12-11T00:21:03.008Z,3.74
2022-12-11T00:22:04.596Z,3.75
2022-12-11T00:23:06.082Z,3.77
2022-12-11T00:24:07.617Z,3.78
2022-12-11T00:25:09.618Z,3.78
2022-12-11T00:26:14.468Z,3.80
2022-12-11T00:27:16.077Z,3.81
2022-12-11T00:28:20.456Z,3.82
2022-12-11T00:29:21.937Z,3.86
2022-12-11T00:30:23.450Z,3.87
2022-12-11T00:31:25.073Z,3.86
2022-12-11T00:32:28.454Z,3.87
2022-12-11T00:33:30.306Z,3.87
2022-12-11T00:34:31.812Z,3.84
2022-12-11T00:35:33.278Z,3.81
2022-12-11T00:36:34.809Z,3.79
2022-12-11T00:37:36.316Z,3.80
2022-12-11T00:38:37.878Z,3.77
2022-12-11T00:39:42.621Z,3.76
2022-12-11T00:40:44.285Z,3.75
2022-12-11T00:41:45.834Z,3.77
2022-12-11T00:42:47.441Z,3.77
2022-12-11T00:43:48.886Z,3.80
2022-12-11T00:44:50.964Z,3.82
2022-12-11T00:45:52.543Z,3.83
2022-12-11T00:46:54.059Z,3.87
2022-12-11T00:47:55.565Z,3.85
2022-12-11T00:48:57.105Z,3.84
2022-12-11T00:49:58.643Z,3.84
2022-12-11T00:51:01.457Z,3.86
2022-12-11T00:52:02.948Z,3.88
2022-12-11T00:53:04.551Z,3.90
2022-12-11T00:54:06.706Z,3.92
2022-12-11T00:55:09.166Z,3.94
2022-12-11T00:56:11.894Z,3.95
2022-12-11T00:57:13.375Z,3.96
2022-12-11T00:58:14.901Z,3.92
2022-12-11T00:59:16.486Z,3.90
2022-12-11T01:00:18.159Z,3.92
2022-12-11T01:01:20.701Z,3.92
2022-12-11T01:02:22.319Z,3.93
2022-12-11T01:03:23.902Z,3.93
2022-12-11T01:04:25.401Z,3.91
2022-12-11T01:05:26.942Z,3.92
2022-12-11T01:06:28.495Z,3.93
2022-12-11T01:07:29.994Z,3.93
2022-12-11T01:08:36.766Z,3.93
2022-12-11T01:09:58.690Z,3.91
2022-12-11T01:11:06.989Z,3.89
2022-12-11T01:12:08.463Z,3.84
2022-12-11T01:13:10.032Z,3.84
2022-12-11T01:14:11.538Z,3.86
2022-12-11T01:15:13.326Z,3.88
2022-12-11T01:16:15.971Z,3.88
2022-12-11T01:17:17.723Z,3.90
2022-12-11T01:18:19.216Z,3.90
2022-12-11T01:19:20.745Z,3.92
2022-12-11T01:20:22.600Z,3.93
2022-12-11T01:21:24.106Z,3.95
2022-12-11T01:22:25.669Z,3.96
2022-12-11T01:23:27.127Z,3.97
2022-12-11T01:24:28.639Z,4.00
2022-12-11T01:25:30.199Z,4.02
2022-12-11T01:26:31.828Z,4.03
2022-12-11T01:27:33.494Z,4.05
2022-12-11T01:28:34.984Z,4.06
2022-12-11T01:29:36.446Z,4.06
2022-12-11T01:30:38.249Z,4.08
2022-12-11T01:31:39.817Z,4.06
2022-12-11T01:32:41.385Z,4.05
2022-12-11T01:33:43.205Z,4.06
2022-12-11T01:34:44.653Z,4.05
2022-12-11T01:35:46.165Z,4.05
2022-12-11T01:36:47.694Z,4.04
2022-12-11T01:37:49.177Z,4.02
2022-12-11T01:38:50.735Z,4.01
2022-12-11T01:39:52.306Z,3.99
2022-12-11T01:40:53.830Z,3.98
2022-12-11T01:41:58.668Z,3.97
2022-12-11T01:43:00.198Z,3.97
2022-12-11T01:44:28.004Z,3.97
2022-12-11T01:45:55.650Z,3.86
2022-12-11T01:46:57.181Z,3.95
2022-12-11T01:48:08.745Z,3.96
2022-12-11T01:49:13.895Z,3.96
2022-12-11T01:50:15.564Z,3.96
2022-12-11T01:51:17.044Z,3.96
2022-12-11T01:52:19.923Z,3.96
2022-12-11T01:53:22.892Z,3.97
2022-12-11T01:54:24.579Z,3.97
2022-12-11T01:55:26.061Z,3.98
2022-12-11T01:56:27.686Z,3.96
2022-12-11T01:57:29.129Z,3.96
2022-12-11T01:58:32.335Z,3.96
2022-12-11T01:59:34.616Z,3.92
2022-12-11T02:00:36.080Z,3.93
2022-12-11T02:01:44.950Z,3.93
2022-12-11T02:02:49.069Z,3.93
2022-12-11T02:03:50.830Z,3.94
2022-12-11T02:04:52.344Z,3.93
2022-12-11T02:05:53.830Z,3.94
2022-12-11T02:06:55.288Z,3.93
2022-12-11T02:07:57.530Z,3.93
2022-12-11T02:08:59.109Z,3.93
2022-12-11T02:10:00.553Z,3.94
2022-12-11T02:11:04.658Z,3.93
2022-12-11T02:12:25.889Z,3.91
2022-12-11T02:13:35.803Z,3.86
2022-12-11T02:14:40.352Z,3.84
2022-12-11T02:15:44.880Z,3.84
2022-12-11T02:16:48.373Z,3.83
2022-12-11T02:17:55.653Z,3.84
2022-12-11T02:19:07.721Z,3.86
2022-12-11T02:20:09.279Z,3.87
2022-12-11T02:21:15.510Z,3.88
2022-12-11T02:22:21.451Z,3.89
2022-12-11T02:23:45.853Z,3.89
2022-12-11T02:25:10.584Z,3.90
2022-12-11T02:26:30.774Z,3.90
2022-12-11T02:27:36.013Z,3.90
2022-12-11T02:28:57.816Z,3.90
2022-12-11T02:30:02.654Z,3.89
2022-12-11T02:31:05.291Z,3.89
2022-12-11T02:32:27.136Z,3.89
2022-12-11T02:33:32.592Z,3.90
2022-12-11T02:34:44.405Z,3.90
2022-12-11T02:35:45.885Z,3.92
2022-12-11T02:36:49.432Z,3.93
2022-12-11T02:37:53.107Z,3.93
2022-12-11T02:38:54.623Z,3.94
2022-12-11T02:39:56.155Z,3.93
2022-12-11T02:40:57.637Z,3.95
2022-12-11T02:41:59.130Z,3.94
2022-12-11T02:43:01.340Z,3.93
2022-12-11T02:44:03.019Z,3.91
2022-12-11T02:45:04.714Z,3.91
2022-12-11T02:46:06.379Z,3.90
2022-12-11T02:47:08.448Z,3.90
2022-12-11T02:48:10.078Z,3.90
2022-12-11T02:49:17.502Z,3.91
2022-12-11T02:50:20.059Z,3.91
2022-12-11T02:51:22.440Z,3.92
2022-12-11T02:52:24.047Z,3.90
2022-12-11T02:53:26.323Z,3.91
2022-12-11T02:54:28.707Z,3.93
2022-12-11T02:55:30.182Z,3.93
2022-12-11T02:56:37.095Z,3.94
2022-12-11T02:57:58.813Z,3.97
2022-12-11T02:59:01.301Z,3.97
2022-12-11T03:00:03.089Z,3.97
2022-12-11T03:01:04.665Z,3.99
2022-12-11T03:02:06.350Z,4.00
2022-12-11T03:03:07.897Z,4.01
2022-12-11T03:04:09.369Z,4.01
2022-12-11T03:05:11.383Z,4.04
2022-12-11T03:06:13.890Z,4.05
2022-12-11T03:07:17.160Z,4.06
2022-12-11T03:08:18.770Z,4.07
2022-12-11T03:09:20.601Z,4.08
2022-12-11T03:10:22.231Z,4.07
2022-12-11T03:11:23.729Z,4.07
2022-12-11T03:12:29.290Z,4.06
2022-12-11T03:13:31.566Z,4.07
2022-12-11T03:14:33.110Z,4.08
2022-12-11T03:15:49.663Z,4.07
2022-12-11T03:17:00.253Z,4.09
2022-12-11T03:18:22.431Z,4.09
2022-12-11T03:19:24.210Z,4.11
2022-12-11T03:20:36.887Z,4.10
2022-12-11T03:21:40.929Z,4.10
2022-12-11T03:22:44.974Z,4.10
2022-12-11T03:23:46.459Z,4.10
2022-12-11T03:24:50.490Z,4.10
2022-12-11T03:25:55.838Z,4.10
2022-12-11T03:27:02.795Z,4.10
2022-12-11T03:28:10.837Z,4.09
2022-12-11T03:29:15.500Z,4.09
2022-12-11T03:30:17.840Z,4.07
2022-12-11T03:31:37.800Z,4.07
2022-12-11T03:32:40.973Z,4.08
2022-12-11T03:33:43.154Z,4.08
2022-12-11T03:34:45.272Z,4.09
2022-12-11T03:35:48.929Z,4.08
2022-12-11T03:36:50.387Z,4.07
2022-12-11T03:37:52.140Z,4.08
2022-12-11T03:38:54.953Z,4.08
2022-12-11T03:39:57.976Z,4.02
2022-12-11T03:40:59.839Z,4.03
2022-12-11T03:42:02.465Z,4.03
2022-12-11T03:43:03.945Z,4.02
2022-12-11T03:44:05.634Z,4.03
2022-12-11T03:45:08.563Z,4.05
2022-12-11T03:46:10.262Z,4.03
2022-12-11T03:47:11.812Z,4.03
2022-12-11T03:48:13.310Z,4.02
2022-12-11T03:49:18.104Z,3.92
2022-12-11T03:50:19.599Z,3.94
2022-12-11T03:51:21.076Z,3.88
2022-12-11T03:52:22.539Z,3.81
2022-12-11T03:53:24.079Z,3.83
2022-12-11T03:54:25.548Z,3.86
2022-12-11T03:55:27.012Z,3.88
2022-12-11T03:56:28.698Z,3.90
2022-12-11T03:57:31.067Z,3.83
2022-12-11T03:58:32.536Z,3.83
2022-12-11T03:59:34.021Z,3.86
2022-12-11T04:00:35.496Z,3.83
2022-12-11T04:01:38.358Z,3.90
2022-12-11T04:02:40.282Z,3.83
2022-12-11T04:03:41.743Z,3.83
2022-12-11T04:04:43.688Z,3.87
2022-12-11T04:05:45.901Z,3.83
2022-12-11T04:06:47.359Z,3.83
2022-12-11T04:07:48.930Z,3.86
2022-12-11T04:08:50.414Z,3.78
2022-12-11T04:09:52.010Z,3.72
2022-12-11T04:11:13.475Z,3.70
2022-12-11T04:12:15.005Z,3.68
2022-12-11T04:13:16.498Z,3.65
2022-12-11T04:14:36.491Z,3.61
2022-12-11T04:15:38.115Z,3.65
2022-12-11T04:16:39.699Z,3.56
2022-12-11T04:17:59.896Z,3.69
2022-12-11T04:19:20.121Z,3.68
2022-12-11T04:20:50.821Z,3.58
2022-12-11T04:22:10.952Z,3.50
2022-12-11T04:23:31.836Z,3.52
2022-12-11T04:24:33.397Z,3.58
2022-12-11T04:25:34.855Z,3.60
2022-12-11T04:26:36.313Z,3.61
2022-12-11T04:27:50.024Z,3.61
2022-12-11T04:28:51.524Z,3.52
2022-12-11T04:29:53.042Z,3.54
2022-12-11T04:30:54.577Z,3.55
2022-12-11T04:31:56.181Z,3.58
2022-12-11T04:32:57.655Z,3.55
2022-12-11T04:33:59.126Z,3.50
2022-12-11T04:35:00.693Z,3.40
2022-12-11T04:36:02.143Z,3.24
2022-12-11T04:37:03.633Z,3.22
2022-12-11T04:38:05.156Z,3.19
2022-12-11T04:39:06.618Z,3.18
2022-12-11T04:40:09.232Z,3.22
2022-12-11T04:41:11.510Z,3.22
2022-12-11T04:42:12.963Z,3.28
2022-12-11T04:43:14.458Z,3.34
2022-12-11T04:44:15.970Z,3.32
2022-12-11T04:45:17.594Z,3.34
2022-12-11T04:46:22.117Z,3.39
2022-12-11T04:47:23.631Z,3.41
2022-12-11T04:48:25.137Z,3.45
2022-12-11T04:49:26.590Z,3.44
2022-12-11T04:50:28.121Z,3.48
2022-12-11T04:51:29.632Z,3.45
2022-12-11T04:52:31.125Z,3.38
2022-12-11T04:53:32.602Z,3.31
2022-12-11T04:54:34.119Z,3.28
2022-12-11T04:55:35.651Z,3.18
2022-12-11T04:56:37.104Z,3.20
2022-12-11T04:57:38.660Z,3.22
2022-12-11T04:58:40.498Z,3.21
2022-12-11T04:59:42.011Z,3.23
2022-12-11T05:00:43.564Z,3.28
2022-12-11T05:01:45.287Z,3.28
2022-12-11T05:02:46.887Z,3.28
2022-12-11T05:03:48.466Z,3.27
2022-12-11T05:04:50.018Z,3.31
2022-12-11T05:05:52.013Z,3.34
2022-12-11T05:06:53.550Z,3.36
2022-12-11T05:07:55.079Z,3.38
2022-12-11T05:08:56.687Z,3.33
2022-12-11T05:09:58.180Z,3.34
2022-12-11T05:11:00.653Z,3.38
2022-12-11T05:12:02.363Z,3.43
2022-12-11T05:13:04.053Z,3.47
2022-12-11T05:14:05.556Z,3.43
2022-12-11T05:15:07.315Z,3.39
2022-12-11T05:16:09.141Z,3.38
2022-12-11T05:17:10.672Z,3.34
2022-12-11T05:18:12.152Z,3.35
2022-12-11T05:19:13.625Z,3.36
2022-12-11T05:20:15.114Z,3.40
2022-12-11T05:21:16.730Z,3.42
2022-12-11T05:22:18.332Z,3.46
2022-12-11T05:23:19.818Z,3.50
2022-12-11T05:24:21.375Z,3.53
2022-12-11T05:25:22.888Z,3.55
2022-12-11T05:26:24.435Z,3.58
2022-12-11T05:27:25.896Z,3.59
2022-12-11T05:28:28.646Z,3.60
2022-12-11T05:29:30.176Z,3.61
2022-12-11T05:30:32.519Z,3.62
2022-12-11T05:31:34.039Z,3.63
2022-12-11T05:32:35.625Z,3.64
2022-12-11T05:33:37.143Z,3.66
2022-12-11T05:34:38.616Z,3.66
2022-12-11T05:35:40.511Z,3.67
2022-12-11T05:36:42.038Z,3.65
2022-12-11T05:37:43.529Z,3.64
2022-12-11T05:38:45.183Z,3.63
2022-12-11T05:39:46.618Z,3.63
2022-12-11T05:41:04.615Z,3.64
2022-12-11T05:42:06.159Z,3.65
2022-12-11T05:43:08.519Z,3.64
2022-12-11T05:44:13.241Z,3.63
2022-12-11T05:45:14.729Z,3.62
2022-12-11T05:46:17.255Z,3.61
2022-12-11T05:47:20.381Z,3.61
2022-12-11T05:48:21.869Z,3.58
2022-12-11T05:49:27.456Z,3.52
2022-12-11T05:50:32.980Z,3.38
2022-12-11T05:51:34.692Z,3.34
2022-12-11T05:52:36.315Z,3.23
2022-12-11T05:53:37.790Z,3.13
2022-12-11T05:54:39.261Z,3.04
2022-12-11T05:55:40.771Z,3.01
2022-12-11T05:56:42.249Z,2.98
2022-12-11T05:57:44.629Z,3.02
2022-12-11T05:58:46.201Z,3.07
2022-12-11T05:59:47.666Z,3.12
2022-12-11T06:00:49.181Z,3.13
2022-12-11T06:01:50.723Z,3.16
2022-12-11T06:02:52.605Z,3.16
2022-12-11T06:03:54.585Z,3.15
2022-12-11T06:04:56.083Z,3.15
2022-12-11T06:05:57.540Z,3.16
2022-12-11T06:06:59.030Z,3.20
2022-12-11T06:08:00.489Z,3.20
2022-12-11T06:09:02.146Z,3.22
2022-12-11T06:10:03.737Z,3.19
2022-12-11T06:11:05.410Z,3.21
2022-12-11T06:12:07.090Z,3.23
2022-12-11T06:13:08.589Z,3.27
2022-12-11T06:14:10.125Z,3.29
2022-12-11T06:15:11.862Z,3.31
2022-12-11T06:16:13.547Z,3.33
2022-12-11T06:17:15.055Z,3.35
2022-12-11T06:18:16.515Z,3.37
2022-12-11T06:19:18.523Z,3.39
2022-12-11T06:20:20.029Z,3.40
2022-12-11T06:21:22.501Z,3.40
2022-12-11T06:22:24.055Z,3.42
2022-12-11T06:23:25.517Z,3.43
2022-12-11T06:24:26.981Z,3.44
2022-12-11T06:25:28.594Z,3.46
2022-12-11T06:26:30.130Z,3.48
2022-12-11T06:27:31.608Z,3.48
2022-12-11T06:28:33.115Z,3.50
2022-12-11T06:29:34.862Z,3.50
2022-12-11T06:30:38.725Z,3.51
2022-12-11T06:31:40.839Z,3.52
2022-12-11T06:32:42.929Z,3.53
2022-12-11T06:33:44.536Z,3.53
2022-12-11T06:34:46.035Z,3.55
2022-12-11T06:35:47.539Z,3.54
2022-12-11T06:36:49.176Z,3.55
2022-12-11T06:37:50.662Z,3.55
2022-12-11T06:38:52.182Z,3.54
2022-12-11T06:39:53.988Z,3.54
2022-12-11T06:40:56.729Z,3.55
2022-12-11T06:41:58.169Z,3.56
2022-12-11T06:42:59.653Z,3.55
2022-12-11T06:44:01.122Z,3.55
2022-12-11T06:45:02.615Z,3.54
2022-12-11T06:46:07.125Z,3.54
2022-12-11T06:47:08.719Z,3.53
2022-12-11T06:48:10.155Z,3.50
2022-12-11T06:49:11.608Z,3.49
2022-12-11T06:50:13.115Z,3.49
2022-12-11T06:51:15.415Z,3.50
2022-12-11T06:52:18.732Z,3.50
2022-12-11T06:53:20.401Z,3.52
2022-12-11T06:54:25.468Z,3.55
2022-12-11T06:55:27.026Z,3.62
2022-12-11T06:56:28.555Z,3.66
2022-12-11T06:57:30.090Z,3.69
2022-12-11T06:58:31.601Z,3.71
2022-12-11T06:59:33.185Z,3.71
2022-12-11T07:00:35.306Z,3.67
2022-12-11T07:01:36.831Z,3.64
2022-12-11T07:02:38.603Z,3.61
2022-12-11T07:03:40.200Z,3.60
2022-12-11T07:04:41.704Z,3.56
2022-12-11T07:05:43.203Z,3.58
2022-12-11T07:06:44.747Z,3.54
2022-12-11T07:07:46.973Z,3.54
2022-12-11T07:08:48.437Z,3.52
2022-12-11T07:09:49.943Z,3.49
2022-12-11T07:10:51.430Z,3.47
2022-12-11T07:11:53.019Z,3.41
2022-12-11T07:12:54.620Z,3.36
2022-12-11T07:13:58.306Z,3.35
2022-12-11T07:14:59.807Z,3.28
2022-12-11T07:16:02.017Z,3.23
2022-12-11T07:17:03.731Z,3.22
2022-12-11T07:18:05.304Z,3.24
2022-12-11T07:19:06.785Z,3.20
2022-12-11T07:20:09.223Z,3.20
2022-12-11T07:21:11.848Z,3.17
2022-12-11T07:22:13.378Z,3.12
2022-12-11T07:23:14.860Z,3.14
2022-12-11T07:24:16.337Z,3.15
2022-12-11T07:25:17.882Z,3.16
2022-12-11T07:26:20.255Z,3.18
2022-12-11T07:27:21.801Z,3.22
2022-12-11T07:28:23.480Z,3.21
2022-12-11T07:29:24.947Z,3.21
2022-12-11T07:30:26.406Z,3.25
2022-12-11T07:31:28.317Z,3.20
2022-12-11T07:32:30.046Z,3.21
2022-12-11T07:33:31.612Z,3.24
2022-12-11T07:34:33.168Z,3.24
2022-12-11T07:35:35.279Z,3.28
2022-12-11T07:36:36.740Z,3.30
2022-12-11T07:37:39.932Z,3.33
2022-12-11T07:38:41.400Z,3.35
2022-12-11T07:39:42.888Z,3.37
2022-12-11T07:40:44.334Z,3.36
2022-12-11T07:41:47.017Z,3.34
2022-12-11T07:42:50.457Z,3.38
2022-12-11T07:43:52.027Z,3.44
2022-12-11T07:44:53.507Z,3.50
2022-12-11T07:45:54.974Z,3.57
2022-12-11T07:46:56.486Z,3.64
2022-12-11T07:47:58.020Z,3.68
2022-12-11T07:49:00.922Z,3.71
2022-12-11T07:50:02.417Z,3.75
2022-12-11T07:51:10.623Z,3.78
2022-12-11T07:52:12.507Z,3.83
2022-12-11T07:53:14.118Z,3.88
2022-12-11T07:54:16.846Z,3.97
2022-12-11T07:55:18.383Z,4.00
2022-12-11T07:56:19.904Z,4.03
2022-12-11T07:57:21.406Z,4.06
2022-12-11T07:58:22.926Z,4.06
2022-12-11T07:59:24.474Z,4.02
2022-12-11T08:00:25.961Z,4.00
2022-12-11T08:01:28.284Z,4.03
2022-12-11T08:02:35.454Z,4.00
2022-12-11T08:03:38.683Z,3.98
2022-12-11T08:04:40.144Z,3.98
2022-12-11T08:05:46.571Z,3.92
2022-12-11T08:06:48.177Z,3.75
2022-12-11T08:07:49.720Z,3.79
2022-12-11T08:08:51.264Z,3.82
2022-12-11T08:09:52.750Z,3.82
2022-12-11T08:10:54.235Z,3.84
2022-12-11T08:11:56.200Z,3.90
2022-12-11T08:12:57.703Z,3.93
2022-12-11T08:14:02.508Z,3.95
2022-12-11T08:15:04.352Z,3.98
2022-12-11T08:16:09.761Z,3.99
2022-12-11T08:17:11.330Z,4.03
2022-12-11T08:18:12.773Z,4.06
2022-12-11T08:19:14.308Z,4.08
2022-12-11T08:20:15.829Z,4.09
2022-12-11T08:21:18.148Z,4.10
2022-12-11T08:22:19.624Z,4.12
2022-12-11T08:23:21.103Z,4.12
2022-12-11T08:24:22.621Z,4.12
2022-12-11T08:25:24.163Z,4.13
2022-12-11T08:26:29.186Z,4.13
2022-12-11T08:27:30.689Z,4.15
2022-12-11T08:28:32.269Z,4.18
2022-12-11T08:29:33.768Z,4.21
2022-12-11T08:30:35.265Z,4.23
2022-12-11T08:31:36.829Z,4.25
2022-12-11T08:32:38.278Z,4.26
2022-12-11T08:33:40.324Z,4.26
2022-12-11T08:34:41.760Z,4.28
2022-12-11T08:35:44.089Z,4.30
2022-12-11T08:36:45.680Z,4.32
2022-12-11T08:37:47.437Z,4.33
2022-12-11T08:38:49.117Z,4.35
2022-12-11T08:39:50.649Z,4.37
2022-12-11T08:40:52.115Z,4.38
2022-12-11T08:41:53.607Z,4.36
2022-12-11T08:42:55.073Z,4.38
2022-12-11T08:43:57.620Z,4.38
2022-12-11T08:44:59.629Z,4.40
2022-12-11T08:46:01.254Z,4.39
2022-12-11T08:47:02.862Z,4.40
2022-12-11T08:48:04.317Z,4.42
2022-12-11T08:49:06.045Z,4.44
2022-12-11T08:50:07.724Z,4.46
2022-12-11T08:51:11.341Z,4.47
2022-12-11T08:52:12.844Z,4.47
2022-12-11T08:53:14.510Z,4.45
2022-12-11T08:54:16.013Z,4.44
2022-12-11T08:55:17.520Z,4.44
2022-12-11T08:56:19.562Z,4.46
2022-12-11T08:57:21.045Z,4.46
2022-12-11T08:58:22.524Z,4.46
2022-12-11T08:59:25.590Z,4.44
2022-12-11T09:00:27.082Z,4.44
2022-12-11T09:01:28.637Z,4.44
2022-12-11T09:02:30.297Z,4.43
2022-12-11T09:03:31.811Z,4.44
2022-12-11T09:04:33.289Z,4.44
2022-12-11T09:05:34.770Z,4.46
2022-12-11T09:06:36.462Z,4.45
2022-12-11T09:07:38.595Z,4.41
2022-12-11T09:08:40.206Z,4.41
2022-12-11T09:09:41.674Z,4.42
2022-12-11T09:10:43.142Z,4.46
2022-12-11T09:11:44.591Z,4.46
2022-12-11T09:12:46.112Z,4.47
2022-12-11T09:13:47.761Z,4.49
2022-12-11T09:14:49.209Z,4.50
2022-12-11T09:15:50.661Z,4.49
2022-12-11T09:16:52.213Z,4.50
2022-12-11T09:17:53.667Z,4.47
2022-12-11T09:18:55.929Z,4.47
2022-12-11T09:19:57.507Z,4.48
2022-12-11T09:21:02.454Z,4.51
2022-12-11T09:22:03.906Z,4.52
2022-12-11T09:23:05.430Z,4.52
2022-12-11T09:24:07.075Z,4.52
2022-12-11T09:25:09.772Z,4.53
2022-12-11T09:26:13.515Z,4.49
2022-12-11T09:27:14.961Z,4.51
2022-12-11T09:28:16.582Z,4.47
2022-12-11T09:29:18.384Z,4.48
2022-12-11T09:30:19.950Z,4.43
2022-12-11T09:31:28.406Z,4.39
2022-12-11T09:32:30.386Z,4.36
2022-12-11T09:33:31.857Z,4.35
2022-12-11T09:34:33.360Z,4.34
2022-12-11T09:35:34.872Z,4.36
2022-12-11T09:36:37.867Z,4.32
2022-12-11T09:37:39.338Z,4.26
2022-12-11T09:38:40.890Z,4.20
2022-12-11T09:39:42.378Z,4.23
2022-12-11T09:40:43.900Z,4.28
2022-12-11T09:42:05.305Z,4.30
2022-12-11T09:43:07.731Z,4.36
2022-12-11T09:44:18.148Z,4.33
2022-12-11T09:45:19.725Z,4.28
2022-12-11T09:46:24.510Z,4.32
2022-12-11T09:47:46.574Z,4.33
2022-12-11T09:48:48.355Z,4.39
2022-12-11T09:49:50.570Z,4.43
2022-12-11T09:50:53.012Z,4.48
2022-12-11T09:52:03.496Z,4.52
2022-12-11T09:53:04.922Z,4.56
2022-12-11T09:54:06.448Z,4.60
2022-12-11T09:55:17.779Z,4.63
2022-12-11T09:56:22.994Z,4.68
2022-12-11T09:57:28.599Z,4.68
2022-12-11T09:58:47.914Z,4.70
2022-12-11T10:00:11.307Z,4.72
2022-12-11T10:01:15.151Z,4.75
2022-12-11T10:02:23.008Z,4.76
2022-12-11T10:03:33.976Z,4.74
2022-12-11T10:04:38.262Z,4.72
2022-12-11T10:05:42.737Z,4.75
2022-12-11T10:06:48.981Z,4.76
2022-12-11T10:07:50.537Z,4.78
2022-12-11T10:09:03.789Z,4.79
2022-12-11T10:10:08.026Z,4.81
2022-12-11T10:11:40.062Z,4.83
2022-12-11T10:12:50.741Z,4.88
2022-12-11T10:14:10.457Z,4.91
2022-12-11T10:15:21.370Z,4.92
2022-12-11T10:16:41.743Z,4.91
2022-12-11T10:17:44.681Z,4.92
2022-12-11T10:18:46.522Z,4.94
2022-12-11T10:19:47.992Z,4.95
2022-12-11T10:20:52.984Z,4.91
2022-12-11T10:21:54.518Z,4.94
2022-12-11T10:22:56.848Z,4.98
2022-12-11T10:23:59.010Z,5.00
2022-12-11T10:25:16.559Z,5.01
2022-12-11T10:26:18.880Z,5.02
2022-12-11T10:27:21.840Z,5.06
2022-12-11T10:28:23.315Z,5.08
2022-12-11T10:29:24.909Z,5.09
2022-12-11T10:30:34.387Z,5.10
2022-12-11T10:31:46.018Z,5.14
2022-12-11T10:32:50.087Z,5.18
2022-12-11T10:34:00.939Z,5.18
2022-12-11T10:35:02.778Z,5.20
2022-12-11T10:36:04.408Z,5.19
2022-12-11T10:37:05.925Z,5.18
2022-12-11T10:38:27.463Z,5.21
2022-12-11T10:39:28.963Z,5.22
2022-12-11T10:40:30.497Z,5.24
2022-12-11T10:41:39.146Z,5.26
2022-12-11T10:42:45.571Z,5.26
2022-12-11T10:43:48.330Z,5.28
2022-12-11T10:44:56.662Z,5.29
2022-12-11T10:45:58.315Z,5.30
2022-12-11T10:47:06.163Z,5.31
2022-12-11T10:48:10.114Z,5.32
2022-12-11T10:49:40.567Z,5.32
2022-12-11T10:50:42.012Z,5.31
2022-12-11T10:51:43.583Z,5.33
2022-12-11T10:52:45.161Z,5.34
2022-12-11T10:53:53.717Z,5.32
2022-12-11T10:55:03.900Z,5.33
2022-12-11T10:56:05.485Z,5.32
2022-12-11T10:57:07.571Z,5.31
2022-12-11T10:58:12.975Z,5.31
2022-12-11T10:59:24.125Z,5.30
2022-12-11T11:00:29.954Z,5.30
2022-12-11T11:01:31.819Z,5.30
2022-12-11T11:02:37.227Z,5.31
2022-12-11T11:03:43.420Z,5.32
2022-12-11T11:04:44.917Z,5.32
2022-12-11T11:05:49.474Z,5.31
2022-12-11T11:07:12.506Z,5.31
2022-12-11T11:08:14.946Z,5.28
2022-12-11T11:09:27.653Z,5.19
2022-12-11T11:10:29.148Z,5.18
2022-12-11T11:11:33.802Z,5.13
2022-12-11T11:12:42.922Z,5.07
2022-12-11T11:13:44.438Z,5.07
2022-12-11T11:14:45.935Z,5.09
2022-12-11T11:15:47.468Z,5.07
2022-12-11T11:16:49.430Z,5.06
2022-12-11T11:17:55.469Z,5.03
2022-12-11T11:18:57.561Z,5.06
2022-12-11T11:20:00.133Z,5.07
2022-12-11T11:21:01.659Z,5.09
2022-12-11T11:22:05.552Z,5.09
2022-12-11T11:23:11.329Z,5.11
2022-12-11T11:24:19.391Z,5.12
2022-12-11T11:25:24.496Z,5.13
2022-12-11T11:26:38.264Z,5.09
2022-12-11T11:27:51.508Z,5.12
2022-12-11T11:28:53.887Z,5.11
2022-12-11T11:29:59.230Z,5.10
2022-12-11T11:31:03.711Z,5.07
2022-12-11T11:32:15.402Z,5.07
2022-12-11T11:33:20.166Z,5.06
2022-12-11T11:34:22.318Z,5.06
2022-12-11T11:35:25.606Z,5.02
2022-12-11T11:36:27.623Z,5.03
2022-12-11T11:37:32.952Z,5.03
2022-12-11T11:38:44.947Z,5.05
2022-12-11T11:39:48.028Z,5.02
2022-12-11T11:41:04.799Z,5.04
2022-12-11T11:42:10.701Z,5.07
2022-12-11T11:43:30.189Z,5.11
2022-12-11T11:44:33.671Z,5.13
2022-12-11T11:45:38.662Z,5.16
2022-12-11T11:46:43.265Z,5.16
2022-12-11T11:47:56.497Z,5.18
2022-12-11T11:49:13.199Z,5.19
2022-12-11T11:50:15.392Z,5.13
2022-12-11T11:51:19.695Z,5.16
2022-12-11T11:52:32.250Z,5.19
2022-12-11T11:53:37.380Z,5.22
2022-12-11T11:55:11.199Z,5.25
2022-12-11T11:56:29.320Z,5.27
2022-12-11T11:57:35.774Z,5.30
2022-12-11T11:58:39.753Z,5.31
2022-12-11T11:59:42.493Z,5.25
2022-12-11T12:00:43.964Z,5.26
2022-12-11T12:01:45.517Z,5.27
2022-12-11T12:02:51.199Z,5.29
2022-12-11T12:03:52.800Z,5.30
2022-12-11T12:04:54.745Z,5.31
2022-12-11T12:06:22.638Z,5.32
2022-12-11T12:07:29.877Z,5.33
2022-12-11T12:08:35.253Z,5.35
2022-12-11T12:09:55.265Z,5.38
2022-12-11T12:10:59.751Z,5.40
2022-12-11T12:12:04.071Z,5.41
2022-12-11T12:13:47.498Z,5.43
2022-12-11T12:14:54.496Z,5.42
2022-12-11T12:15:56.751Z,5.42
2022-12-11T12:17:17.202Z,5.43
2022-12-11T12:18:18.750Z,5.44
2022-12-11T12:19:43.600Z,5.45
2022-12-11T12:21:00.568Z,5.45
2022-12-11T12:22:22.306Z,5.47
2022-12-11T12:23:23.794Z,5.47
2022-12-11T12:24:37.546Z,5.47
2022-12-11T12:25:40.890Z,5.47
2022-12-11T12:26:45.216Z,5.50
2022-12-11T12:28:06.958Z,5.49
2022-12-11T12:29:26.931Z,5.50
2022-12-11T12:30:29.749Z,5.50
2022-12-11T12:31:37.144Z,5.51
2022-12-11T12:32:38.644Z,5.51
2022-12-11T12:33:43.182Z,5.51
2022-12-11T12:35:03.235Z,5.53
2022-12-11T12:36:07.125Z,5.54
2022-12-11T12:37:27.319Z,5.56
2022-12-11T12:38:32.031Z,5.56
2022-12-11T12:39:51.439Z,5.57
2022-12-11T12:40:59.187Z,5.57
2022-12-11T12:42:07.930Z,5.56
2022-12-11T12:43:09.618Z,5.57
2022-12-11T12:44:15.153Z,5.58
2022-12-11T12:45:16.622Z,5.60
2022-12-11T12:46:21.142Z,5.59
2022-12-11T12:47:22.611Z,5.60
2022-12-11T12:48:24.710Z,5.61
2022-12-11T12:49:42.147Z,5.61
2022-12-11T12:50:44.704Z,5.61
2022-12-11T12:51:46.259Z,5.62
2022-12-11T12:52:47.760Z,5.64
2022-12-11T12:53:59.486Z,5.59
2022-12-11T12:55:15.972Z,5.59
2022-12-11T12:56:17.470Z,5.57
2022-12-11T12:57:18.967Z,5.57
2022-12-11T12:58:29.719Z,5.58
2022-12-11T12:59:31.407Z,5.54
2022-12-11T13:00:34.349Z,5.52
2022-12-11T13:01:35.878Z,5.52
2022-12-11T13:02:37.976Z,5.52
2022-12-11T13:03:51.431Z,5.49
2022-12-11T13:05:00.593Z,5.52
2022-12-11T13:06:03.104Z,5.53
2022-12-11T13:07:18.124Z,5.40
2022-12-11T13:08:23.865Z,5.42
2022-12-11T13:09:26.234Z,5.45
2022-12-11T13:10:40.633Z,5.47
2022-12-11T13:11:42.097Z,5.49
2022-12-11T13:12:44.438Z,5.50
2022-12-11T13:13:51.594Z,5.53
2022-12-11T13:14:56.449Z,5.47
2022-12-11T13:16:16.118Z,5.44
2022-12-11T13:17:20.573Z,5.47
2022-12-11T13:18:35.150Z,5.44
2022-12-11T13:19:42.288Z,5.45
2022-12-11T13:20:48.266Z,5.44
2022-12-11T13:22:12.920Z,5.45
2022-12-11T13:23:32.917Z,5.36
2022-12-11T13:24:34.472Z,5.39
2022-12-11T13:25:48.988Z,5.34
2022-12-11T13:26:50.567Z,5.35
2022-12-11T13:27:52.173Z,5.38
2022-12-11T13:28:54.080Z,5.41
2022-12-11T13:30:14.134Z,5.43
2022-12-11T13:31:15.655Z,5.45
2022-12-11T13:32:17.139Z,5.47
2022-12-11T13:33:18.732Z,5.49
2022-12-11T13:34:21.402Z,5.51
2022-12-11T13:35:23.354Z,5.49
2022-12-11T13:36:31.849Z,5.50
2022-12-11T13:37:36.946Z,5.51
2022-12-11T13:38:39.067Z,5.52
2022-12-11T13:39:40.530Z,5.53
2022-12-11T13:40:42.169Z,5.54
2022-12-11T13:41:47.793Z,5.55
2022-12-11T13:42:49.387Z,5.56
2022-12-11T13:43:50.877Z,5.57
2022-12-11T13:44:52.506Z,5.58
2022-12-11T13:46:03.845Z,5.57
2022-12-11T13:47:05.981Z,5.58
2022-12-11T13:48:16.756Z,5.57
2022-12-11T13:49:22.931Z,5.57
2022-12-11T13:50:25.294Z,5.55
2022-12-11T13:51:27.066Z,5.55
2022-12-11T13:52:30.285Z,5.56
2022-12-11T13:53:31.949Z,5.50
2022-12-11T13:54:34.415Z,5.46
2022-12-11T13:55:35.903Z,5.46
2022-12-11T13:56:37.394Z,5.46
2022-12-11T13:57:44.673Z,5.46
2022-12-11T13:58:46.323Z,5.48
2022-12-11T13:59:48.888Z,5.50
2022-12-11T14:00:54.209Z,5.52
2022-12-11T14:01:56.856Z,5.52
2022-12-11T14:02:59.206Z,5.53
2022-12-11T14:04:00.717Z,5.54
2022-12-11T14:05:03.426Z,5.56
2022-12-11T14:06:04.946Z,5.58
2022-12-11T14:07:07.060Z,5.58
2022-12-11T14:08:11.430Z,5.59
2022-12-11T14:09:15.999Z,5.61
2022-12-11T14:10:21.430Z,5.62
2022-12-11T14:11:24.316Z,5.63
2022-12-11T14:12:25.840Z,5.65
2022-12-11T14:13:31.780Z,5.66
2022-12-11T14:14:37.152Z,5.67